Irving South's Hourly Summary for Monday, July 9, 2018
Hour Temp
(f)
RH
(%)
Solar Rad.
(MJ/m2)
Rainfall
(in)
Wind
(mph)
7/9/2018 12:00 AM 79 63 0 0 0.03
7/9/2018 1:00 AM 78 66 0 0 0.02
7/9/2018 2:00 AM 77 69 0 0 0
7/9/2018 3:00 AM 76 71 0 0 0.06
7/9/2018 4:00 AM 76 77 0 0 0.03
7/9/2018 5:00 AM 76 79 0 0 0.1
7/9/2018 6:00 AM 76 79 0 0 0.49
7/9/2018 7:00 AM 75 81 0.02 0 0.11
7/9/2018 8:00 AM 76 78 0.15 0 0.06
7/9/2018 9:00 AM 79 67 0.98 0 0.47
7/9/2018 10:00 AM 83 60 1.79 0 0.74
7/9/2018 11:00 AM 85 54 1.6 0 1.18
7/9/2018 12:00 PM 85 55 0.73 0 0.73
7/9/2018 1:00 PM 83 58 0.84 0.01 2.22
7/9/2018 2:00 PM 85 49 3.17 0 1.78
7/9/2018 3:00 PM 87 44 2.11 0.5 3.37
7/9/2018 4:00 PM 75 71 0.23 0.98 3.59
7/9/2018 5:00 PM 76 82 0.59 0.02 0.15
7/9/2018 6:00 PM 83 64 1.64 0 0.08
7/9/2018 7:00 PM 83 60 0.77 0 0.54
7/9/2018 8:00 PM 80 72 0.19 0 0.26
7/9/2018 9:00 PM 78 78 0.05 0 0
7/9/2018 10:00 PM 78 78 0 0 0
7/9/2018 11:00 PM 77 77 0 0 0
Data Summary 79 68 14.86 1.51 0.67